Time;durP1;ratioP1;P1;durP2;ratioP2;P2;SDS_P1;SDS_P2;PMS_P1;PMS_P2;Temp;Humidity;BMP_temperature;BMP_pressure;BME280_temperature;BME280_humidity;BME280_pressure;Samples;Min_cycle;Max_cycle;Signal;HPM_P1;HPM_P2
2023/05/12 10:10:39;;;;;;;;;;;;;;;;;;6206782;23;19931;-76
2023/05/12 10:13:05;;;;;;;;;;;;;;;;;;6188104;23;19991;-79
2023/05/12 10:15:32;;;;;;;;;;;;;;;;;;6187931;23;20006;-78
2023/05/12 10:17:59;;;;;;;;;;;;;;;;;;6188057;23;19912;-75
2023/05/12 10:20:25;;;;;;;;;;;;;;;;;;6187652;23;20350;-76
2023/05/12 10:22:51;;;;;;;;;;;;;;;;;;6188127;23;19987;-76
2023/05/12 10:25:17;;;;;;;;;;;;;;;;;;6188136;23;19962;-77
2023/05/12 10:27:43;;;;;;;;;;;;;;;;;;6187493;23;19912;-76
2023/05/12 10:30:09;;;;;;;;;;;;;;;;;;6187668;23;19943;-76
2023/05/12 10:32:34;;;;;;;;;;;;;;;;;;6186217;23;19944;-76
2023/05/12 10:35:06;;;;;;;;;;;;;;;;;;6187709;23;19913;-75
2023/05/12 10:37:33;;;;;;;;;;;;;;;;;;6187650;23;19919;-74
2023/05/12 10:40:01;;;;;;;;;;;;;;;;;;6187408;23;20290;-75
2023/05/12 10:42:26;;;;;;;;;;;;;;;;;;6187448;23;19919;-77
2023/05/12 10:44:52;;;;;;;;;;;;;;;;;;6187605;23;19987;-76
2023/05/12 10:47:20;;;;;;;;;;;;;;;;;;6187164;23;19912;-75
2023/05/12 10:49:45;;;;;;;;;;;;;;;;;;6187754;23;20316;-76
2023/05/12 10:52:12;;;;;;;2.17;1.75;;;;;;;;;;6186953;23;19961;-76
2023/05/12 10:54:45;;;;;;;1.67;1.20;;;;;;;;;;6187101;23;20005;-76
2023/05/12 10:57:19;;;;;;;1.83;1.15;;;;;;;;;;6187012;23;20061;-76
2023/05/12 10:59:58;;;;;;;1.65;1.15;;;;;;;;;;6186957;23;20368;-77
2023/05/12 11:02:27;;;;;;;1.30;1.20;;;;;;;;;;6185358;23;20035;-77
2023/05/12 11:05:03;;;;;;;1.30;1.20;;;;;;;;;;6187258;23;20432;-78
2023/05/12 11:07:31;;;;;;;1.52;1.42;;;;;;;;;;6187032;23;20013;-79
2023/05/12 11:09:59;;;;;;;1.33;1.20;;;;;;;;;;6186965;23;20028;-75
2023/05/12 11:12:36;;;;;;;1.55;1.45;;;;;;;;;;6213624;23;20487;-78
2023/05/12 11:15:03;;;;;;;1.50;1.40;;;;;;;;;;6216828;23;20001;-78
2023/05/12 11:17:29;;;;;;;2.30;2.10;;;;;;;;;;6216934;23;20032;-76
2023/05/12 11:19:55;;;;;;;1.77;1.67;;;;;;;;;;6217051;23;20000;-75
2023/05/12 11:22:22;;;;;;;3.25;2.13;;;;;;;;;;6217131;23;20051;-75
2023/05/12 11:24:48;;;;;;;2.60;2.20;;;;;;;;;;6190263;23;20396;-78
2023/05/12 11:27:16;;;;;;;2.08;1.90;;;;;;;;;;6216884;23;20012;-77
2023/05/12 11:29:43;;;;;;;2.10;1.90;;;;;;;;;;6216708;23;20005;-75
2023/05/12 11:32:11;;;;;;;1.90;1.80;;;;;;;;;;6216692;23;20086;-77
2023/05/12 11:34:37;;;;;;;1.88;1.73;;;;;;;;;;6216820;23;20332;-77
2023/05/12 11:37:04;;;;;;;3.50;2.10;;;;;;;;;;6216475;23;20001;-84
2023/05/12 11:39:31;;;;;;;2.70;2.03;;;;;;;;;;6217215;23;20013;-78
2023/05/12 11:42:03;;;;;;;1.80;1.70;;;;;;;;;;6216490;23;20455;-78
2023/05/12 11:44:28;;;;;;;4.50;2.10;;;;;;;;;;6216777;23;20005;-82
2023/05/12 11:46:54;;;;;;;2.38;2.13;;;;;;;;;;6216431;23;20474;-78
2023/05/12 11:49:19;;;;;;;2.42;2.25;;;;;;;;;;6216306;23;20005;-77
2023/05/12 11:51:45;;;;;;;3.42;2.40;;;;;;;;;;6216097;23;19997;-75
2023/05/12 11:54:10;;;;;;;2.35;2.15;;;;;;;;;;6216379;23;19996;-75
2023/05/12 11:56:36;;;;;;;1.92;1.83;;;;;;;;;;6216619;23;20009;-75
2023/05/12 11:59:01;;;;;;;1.80;1.70;;;;;;;;;;6216587;23;20351;-83
2023/05/12 12:01:27;;;;;;;1.95;1.50;;;;;;;;;;6216524;23;20054;-76
2023/05/12 12:03:54;;;;;;;1.60;1.50;;;;;;;;;;6216454;23;20403;-82
2023/05/12 12:06:22;;;;;;;1.88;1.77;;;;;;;;;;6216122;23;20027;-83
2023/05/12 12:08:55;;;;;;;2.15;1.95;;;;;;;;;;6216405;23;20075;-81
2023/05/12 12:11:22;;;;;;;2.60;1.75;;;;;;;;;;6216343;23;20017;-77
2023/05/12 12:13:55;;;;;;;1.70;1.60;;;;;;;;;;6216375;23;20000;-76
2023/05/12 12:16:24;;;;;;;1.48;1.33;;;;;;;;;;6216016;23;20063;-75
2023/05/12 12:18:50;;;;;;;3.30;2.13;;;;;;;;;;6216300;23;20331;-75
2023/05/12 12:21:16;;;;;;;1.60;1.35;;;;;;;;;;6216502;23;20056;-78
2023/05/12 12:23:41;;;;;;;2.75;1.70;;;;;;;;;;6216244;23;20424;-77
2023/05/12 12:26:06;;;;;;;2.08;1.98;;;;;;;;;;6215854;23;20036;-78
2023/05/12 12:28:32;;;;;;;1.50;1.40;;;;;;;;;;6216463;23;20003;-76
2023/05/12 12:30:58;;;;;;;1.50;1.40;;;;;;;;;;6189868;23;20075;-82
2023/05/12 12:33:24;;;;;;;1.40;1.30;;;;;;;;;;6216282;23;20420;-79
2023/05/12 12:35:49;;;;;;;1.80;1.30;;;;;;;;;;6215961;23;20011;-76
2023/05/12 12:38:15;;;;;;;1.65;1.55;;;;;;;;;;6216108;23;20337;-76
2023/05/12 12:40:41;;;;;;;1.42;1.33;;;;;;;;;;6216107;23;20005;-76
2023/05/12 12:43:07;;;;;;;1.50;1.40;;;;;;;;;;6216174;23;20000;-78
2023/05/12 12:45:33;;;;;;;1.48;1.33;;;;;;;;;;6216026;23;20080;-75
2023/05/12 12:47:58;;;;;;;1.73;1.63;;;;;;;;;;6216025;23;20004;-76
2023/05/12 12:50:24;;;;;;;2.53;1.55;;;;;;;;;;6216385;23;20005;-74
2023/05/12 12:52:49;;;;;;;1.48;1.38;;;;;;;;;;6216298;23;20031;-77
2023/05/12 12:55:15;;;;;;;1.55;1.45;;;;;;;;;;6216233;23;20008;-74
2023/05/12 12:57:41;;;;;;;1.85;1.60;;;;;;;;;;6216104;23;20036;-79
2023/05/12 13:00:07;;;;;;;1.60;1.50;;;;;;;;;;6216161;23;20005;-76
2023/05/12 13:02:33;;;;;;;1.73;1.63;;;;;;;;;;6216966;23;20016;-78
2023/05/12 13:05:03;;;;;;;1.70;1.60;;;;;;;;;;6218091;23;20044;-74
2023/05/12 13:07:29;;;;;;;1.85;1.50;;;;;;;;;;6218261;23;20004;-77
2023/05/12 13:09:54;;;;;;;1.98;1.80;;;;;;;;;;6217899;23;20428;-83
2023/05/12 13:12:20;;;;;;;1.70;1.60;;;;;;;;;;6217817;23;20019;-79
2023/05/12 13:14:46;;;;;;;1.92;1.75;;;;;;;;;;6218388;23;19997;-80
2023/05/12 13:17:11;;;;;;;1.52;1.40;;;;;;;;;;6191303;23;20004;-77
2023/05/12 13:19:37;;;;;;;1.70;1.60;;;;;;;;;;6218155;23;20031;-78
2023/05/12 13:22:02;;;;;;;2.22;1.80;;;;;;;;;;6218216;23;20000;-79
2023/05/12 13:24:28;;;;;;;1.70;1.60;;;;;;;;;;6217918;23;20008;-76
2023/05/12 13:26:54;;;;;;;1.83;1.45;;;;;;;;;;6218102;23;20012;-77
2023/05/12 13:29:19;;;;;;;1.73;1.58;;;;;;;;;;6191308;23;20015;-76
2023/05/12 13:31:45;;;;;;;1.85;1.75;;;;;;;;;;6218009;23;20005;-75
2023/05/12 13:34:12;;;;;;;1.80;1.70;;;;;;;;;;6217825;23;20474;-76
2023/05/12 13:36:37;;;;;;;1.70;1.60;;;;;;;;;;6217771;23;20024;-76
2023/05/12 13:39:03;;;;;;;3.22;1.75;;;;;;;;;;6217618;23;20008;-75
2023/05/12 13:41:28;;;;;;;1.60;1.50;;;;;;;;;;6218142;23;20012;-76
2023/05/12 13:43:54;;;;;;;1.50;1.40;;;;;;;;;;6217687;23;20004;-75
2023/05/12 13:46:19;;;;;;;1.50;1.40;;;;;;;;;;6217284;23;20016;-76
2023/05/12 13:48:45;;;;;;;1.40;1.30;;;;;;;;;;6217694;23;20004;-76
2023/05/12 13:51:11;;;;;;;1.83;1.30;;;;;;;;;;6217903;23;20485;-76
2023/05/12 13:53:38;;;;;;;1.75;1.60;;;;;;;;;;6218100;23;20001;-75
2023/05/12 13:56:04;;;;;;;1.65;1.55;;;;;;;;;;6217713;23;20009;-75
2023/05/12 13:58:29;;;;;;;1.50;1.40;;;;;;;;;;6217711;23;20096;-75
2023/05/12 14:00:55;;;;;;;1.67;1.58;;;;;;;;;;6217594;23;20019;-75
2023/05/12 14:03:20;;;;;;;1.60;1.50;;;;;;;;;;6217561;23;20012;-76
2023/05/12 14:05:46;;;;;;;1.48;1.38;;;;;;;;;;6217405;23;20071;-75
2023/05/12 14:08:11;;;;;;;1.90;1.70;;;;;;;;;;6218069;23;20036;-75
2023/05/12 14:10:37;;;;;;;1.38;1.30;;;;;;;;;;6217978;23;20017;-76
2023/05/12 14:13:02;;;;;;;1.58;1.48;;;;;;;;;;6217469;23;20031;-76
2023/05/12 14:15:28;;;;;;;1.73;1.55;;;;;;;;;;6217110;23;20013;-76
2023/05/12 14:17:53;;;;;;;1.98;1.77;;;;;;;;;;6217171;23;20000;-76
2023/05/12 14:20:19;;;;;;;2.13;1.52;;;;;;;;;;6217852;23;20416;-75
2023/05/12 14:22:44;;;;;;;1.70;1.60;;;;;;;;;;6190736;23;20036;-76
2023/05/12 14:25:10;;;;;;;1.52;1.42;;;;;;;;;;6190851;23;20005;-76
2023/05/12 14:27:36;;;;;;;2.30;1.80;;;;;;;;;;6217538;23;20096;-76
2023/05/12 14:30:02;;;;;;;1.45;1.35;;;;;;;;;;6190864;23;20000;-75
2023/05/12 14:32:27;;;;;;;1.50;1.40;;;;;;;;;;6217129;23;20447;-76
2023/05/12 14:34:53;;;;;;;1.95;1.50;;;;;;;;;;6217606;23;20001;-75
2023/05/12 14:37:18;;;;;;;1.52;1.42;;;;;;;;;;6217512;23;20361;-76
2023/05/12 14:39:44;;;;;;;1.75;1.30;;;;;;;;;;6217387;23;20036;-76
2023/05/12 14:42:09;;;;;;;1.80;1.50;;;;;;;;;;6190611;23;20032;-76
2023/05/12 14:44:35;;;;;;;1.60;1.50;;;;;;;;;;6217580;23;20028;-76
2023/05/12 14:47:00;;;;;;;2.22;1.73;;;;;;;;;;6216952;23;20008;-76
2023/05/12 14:49:26;;;;;;;1.50;1.40;;;;;;;;;;6217339;23;20050;-77
2023/05/12 14:51:51;;;;;;;1.73;1.58;;;;;;;;;;6217033;23;20412;-79
2023/05/12 14:54:17;;;;;;;1.60;1.50;;;;;;;;;;6217256;23;20116;-75
2023/05/12 14:56:42;;;;;;;1.90;1.60;;;;;;;;;;6190402;23;20412;-75
2023/05/12 14:59:09;;;;;;;3.15;1.77;;;;;;;;;;6217075;23;20084;-75
2023/05/12 15:01:34;;;;;;;2.80;1.88;;;;;;;;;;6190444;23;20012;-75
2023/05/12 15:04:00;;;;;;;2.05;1.85;;;;;;;;;;6217118;23;20000;-75
2023/05/12 15:06:25;;;;;;;1.77;1.67;;;;;;;;;;6217004;23;20004;-75
2023/05/12 15:08:51;;;;;;;1.58;1.45;;;;;;;;;;6217120;23;20027;-74
2023/05/12 15:11:16;;;;;;;2.53;1.73;;;;;;;;;;6216824;23;20012;-75
2023/05/12 15:13:41;;;;;;;1.58;1.48;;;;;;;;;;6217273;23;20031;-75
2023/05/12 15:16:07;;;;;;;1.60;1.48;;;;;;;;;;6190268;23;20483;-75
2023/05/12 15:18:33;;;;;;;4.35;1.90;;;;;;;;;;6216814;23;20324;-75
2023/05/12 15:20:58;;;;;;;1.67;1.58;;;;;;;;;;6217159;23;20005;-75
2023/05/12 15:23:24;;;;;;;1.80;1.70;;;;;;;;;;6217043;23;20082;-75
2023/05/12 15:25:50;;;;;;;3.13;1.63;;;;;;;;;;6216205;23;20492;-75
2023/05/12 15:28:16;;;;;;;1.85;1.70;;;;;;;;;;6217027;23;20071;-75
2023/05/12 15:30:41;;;;;;;1.80;1.70;;;;;;;;;;6216744;23;20000;-75
2023/05/12 15:33:07;;;;;;;1.60;1.50;;;;;;;;;;6216800;23;20054;-74
2023/05/12 15:35:33;;;;;;;1.50;1.40;;;;;;;;;;6217135;23;20005;-75
2023/05/12 15:37:58;;;;;;;1.40;1.30;;;;;;;;;;6216825;23;20007;-75
2023/05/12 15:40:24;;;;;;;1.70;1.60;;;;;;;;;;6216885;23;20374;-75
2023/05/12 15:42:50;;;;;;;2.00;1.90;;;;;;;;;;6215912;23;20080;-78
2023/05/12 15:45:16;;;;;;;1.70;1.60;;;;;;;;;;6216262;23;20047;-86
2023/05/12 15:47:41;;;;;;;1.48;1.38;;;;;;;;;;6216131;23;20008;-75
2023/05/12 15:50:09;;;;;;;1.45;1.35;;;;;;;;;;6216677;23;20008;-76
2023/05/12 15:52:34;;;;;;;1.67;1.50;;;;;;;;;;6189869;23;20008;-76
2023/05/12 15:55:00;;;;;;;1.52;1.42;;;;;;;;;;6216175;23;20364;-79
2023/05/12 15:57:25;;;;;;;1.70;1.60;;;;;;;;;;6216426;23;20012;-76
2023/05/12 15:59:56;;;;;;;1.73;1.60;;;;;;;;;;6189719;23;20004;-75
2023/05/12 16:02:21;;;;;;;1.55;1.45;;;;;;;;;;6216313;23;20376;-80
2023/05/12 16:04:47;;;;;;;1.70;1.60;;;;;;;;;;6216354;23;20011;-78
2023/05/12 16:07:12;;;;;;;1.75;1.52;;;;;;;;;;6216011;23;20032;-82
2023/05/12 16:09:38;;;;;;;3.70;1.73;;;;;;;;;;6216833;23;20371;-83
2023/05/12 16:12:03;;;;;;;1.70;1.60;;;;;;;;;;6216181;23;20013;-77
2023/05/12 16:14:29;;;;;;;1.70;1.60;;;;;;;;;;6189824;23;20424;-81
2023/05/12 16:16:54;;;;;;;2.15;2.05;;;;;;;;;;6216212;23;20320;-77
2023/05/12 16:19:20;;;;;;;4.03;1.70;;;;;;;;;;6190310;23;20009;-77
2023/05/12 16:21:45;;;;;;;2.15;1.70;;;;;;;;;;6216258;23;20004;-80
2023/05/12 16:24:11;;;;;;;3.00;1.95;;;;;;;;;;6216226;23;20008;-75
2023/05/12 16:26:36;;;;;;;2.22;1.70;;;;;;;;;;6217237;23;20008;-78
2023/05/12 16:29:02;;;;;;;2.10;1.90;;;;;;;;;;6215868;23;20005;-76
2023/05/12 16:31:29;;;;;;;1.90;1.80;;;;;;;;;;6216309;23;20410;-76
2023/05/12 16:33:56;;;;;;;2.20;2.10;;;;;;;;;;6216463;23;20005;-76
2023/05/12 16:36:23;;;;;;;2.95;2.03;;;;;;;;;;6215987;23;20051;-85
2023/05/12 16:38:49;;;;;;;2.05;1.95;;;;;;;;;;6218773;23;20001;-77
2023/05/12 16:41:15;;;;;;;1.90;1.80;;;;;;;;;;6216052;23;20005;-75
2023/05/12 16:43:40;;;;;;;2.05;1.95;;;;;;;;;;6215928;23;20400;-83
2023/05/12 16:46:06;;;;;;;1.85;1.75;;;;;;;;;;6215650;23;20013;-76
2023/05/12 16:48:35;;;;;;;2.58;2.38;;;;;;;;;;6215891;23;20012;-81
2023/05/12 16:51:07;;;;;;;3.45;2.20;;;;;;;;;;6215796;23;20016;-77
2023/05/12 16:53:33;;;;;;;2.17;2.00;;;;;;;;;;6215748;23;20490;-81
2023/05/12 16:55:59;;;;;;;2.50;2.30;;;;;;;;;;6215718;23;20043;-75
2023/05/12 16:58:26;;;;;;;2.30;2.10;;;;;;;;;;6215458;23;20005;-76
2023/05/12 17:00:53;;;;;;;2.30;2.13;;;;;;;;;;6215811;23;20424;-78
2023/05/12 17:03:18;;;;;;;2.65;1.70;;;;;;;;;;6216035;23;20015;-77
2023/05/12 17:05:45;;;;;;;1.67;1.58;;;;;;;;;;6215835;23;20005;-75
2023/05/12 17:08:11;;;;;;;3.38;2.00;;;;;;;;;;6216154;23;20011;-75
2023/05/12 17:10:37;;;;;;;1.80;1.70;;;;;;;;;;6215781;23;20511;-75
2023/05/12 17:13:04;;;;;;;1.67;1.58;;;;;;;;;;6218277;23;20008;-76
2023/05/12 17:15:29;;;;;;;4.95;1.60;;;;;;;;;;6215997;23;20053;-76
2023/05/12 17:17:55;;;;;;;3.63;1.60;;;;;;;;;;6216345;23;20005;-76
2023/05/12 17:20:21;;;;;;;3.35;1.70;;;;;;;;;;6216255;23;20131;-77
2023/05/12 17:22:50;;;;;;;2.55;1.30;;;;;;;;;;6216067;23;20028;-77
2023/05/12 17:25:18;;;;;;;1.37;1.27;;;;;;;;;;6215768;23;20001;-76
2023/05/12 17:27:48;;;;;;;1.58;1.48;;;;;;;;;;6214584;23;20267;-76
2023/05/12 17:30:14;;;;;;;3.90;1.73;;;;;;;;;;6189272;23;20331;-77
2023/05/12 17:32:40;;;;;;;1.42;1.33;;;;;;;;;;6215774;23;20083;-78
2023/05/12 17:35:07;;;;;;;1.20;1.20;;;;;;;;;;6215789;23;20084;-77
2023/05/12 17:37:33;;;;;;;1.45;1.35;;;;;;;;;;6215687;23;20058;-77
2023/05/12 17:39:59;;;;;;;2.20;1.25;;;;;;;;;;6215738;23;20420;-77
2023/05/12 17:42:29;;;;;;;2.17;1.48;;;;;;;;;;6216156;23;20370;-77
2023/05/12 17:44:56;;;;;;;1.35;1.25;;;;;;;;;;6216004;23;20005;-78
2023/05/12 17:47:21;;;;;;;2.70;1.40;;;;;;;;;;6215695;23;20055;-80
2023/05/12 17:49:46;;;;;;;1.58;1.30;;;;;;;;;;6216793;23;20001;-75
2023/05/12 17:52:12;;;;;;;1.52;1.20;;;;;;;;;;6217521;23;20005;-76
2023/05/12 17:54:37;;;;;;;1.40;1.30;;;;;;;;;;6190887;23;20005;-76
2023/05/12 17:57:03;;;;;;;1.40;1.30;;;;;;;;;;6217702;23;20029;-75
2023/05/12 17:59:28;;;;;;;1.67;1.40;;;;;;;;;;6217788;23;20032;-75
2023/05/12 18:01:54;;;;;;;3.25;1.25;;;;;;;;;;6217576;23;20086;-76
2023/05/12 18:04:21;;;;;;;1.40;1.30;;;;;;;;;;6217602;23;20039;-76
2023/05/12 18:06:49;;;;;;;1.38;1.27;;;;;;;;;;6217396;23;20009;-76
2023/05/12 18:09:16;;;;;;;1.88;1.30;;;;;;;;;;6217305;23;20001;-76
2023/05/12 18:11:43;;;;;;;1.20;1.20;;;;;;;;;;6217416;23;20012;-76
2023/05/12 18:14:09;;;;;;;1.27;1.20;;;;;;;;;;6217700;23;20009;-76
2023/05/12 18:16:34;;;;;;;3.15;1.23;;;;;;;;;;6217170;23;20011;-76
2023/05/12 18:19:00;;;;;;;1.50;1.40;;;;;;;;;;6217351;23;20058;-76
2023/05/12 18:21:26;;;;;;;1.30;1.20;;;;;;;;;;6190705;23;20081;-76
2023/05/12 18:23:51;;;;;;;1.30;1.20;;;;;;;;;;6217332;23;20324;-77
2023/05/12 18:26:17;;;;;;;1.10;1.10;;;;;;;;;;6217092;23;20412;-76
2023/05/12 18:28:42;;;;;;;1.23;1.13;;;;;;;;;;6217229;23;20076;-76
2023/05/12 18:31:08;;;;;;;1.08;1.02;;;;;;;;;;6217498;23;20008;-76
2023/05/12 18:33:34;;;;;;;1.15;1.10;;;;;;;;;;6217584;23;20001;-76
2023/05/12 18:36:00;;;;;;;2.70;1.20;;;;;;;;;;6217095;23;20103;-76
2023/05/12 18:38:26;;;;;;;1.23;1.23;;;;;;;;;;6217095;23;20003;-76
2023/05/12 18:40:51;;;;;;;2.35;1.63;;;;;;;;;;6217169;23;20008;-76
2023/05/12 18:43:17;;;;;;;3.05;2.10;;;;;;;;;;6217699;23;20001;-77
2023/05/12 18:45:42;;;;;;;2.30;1.63;;;;;;;;;;6217153;23;20000;-77
2023/05/12 18:48:08;;;;;;;1.20;1.20;;;;;;;;;;6217156;23;20005;-78
2023/05/12 18:50:33;;;;;;;2.08;1.25;;;;;;;;;;6217167;23;20001;-76
2023/05/12 18:52:59;;;;;;;1.60;1.48;;;;;;;;;;6217050;23;20046;-77
2023/05/12 18:55:24;;;;;;;1.15;1.13;;;;;;;;;;6217091;23;20001;-76
2023/05/12 18:57:50;;;;;;;3.65;1.30;;;;;;;;;;6217299;23;20035;-77
2023/05/12 19:00:16;;;;;;;2.55;1.23;;;;;;;;;;6217163;23;20329;-77
2023/05/12 19:02:43;;;;;;;2.10;1.30;;;;;;;;;;6217058;23;20115;-78
2023/05/12 19:05:09;;;;;;;1.58;1.48;;;;;;;;;;6217122;23;20428;-77
2023/05/12 19:07:34;;;;;;;2.70;1.50;;;;;;;;;;6190001;23;20009;-77
2023/05/12 19:09:59;;;;;;;1.95;1.70;;;;;;;;;;6217231;23;20012;-77
2023/05/12 19:12:25;;;;;;;1.63;1.52;;;;;;;;;;6216650;23;20061;-77
2023/05/12 19:14:51;;;;;;;1.58;1.48;;;;;;;;;;6217077;23;20005;-77
2023/05/12 19:17:16;;;;;;;2.00;1.80;;;;;;;;;;6216727;23;20416;-76
2023/05/12 19:19:42;;;;;;;3.17;1.60;;;;;;;;;;6216814;23;20361;-76
2023/05/12 19:22:07;;;;;;;2.00;1.50;;;;;;;;;;6216588;23;20079;-75
2023/05/12 19:24:33;;;;;;;2.20;2.00;;;;;;;;;;6217063;23;20000;-76
2023/05/12 19:26:58;;;;;;;1.67;1.55;;;;;;;;;;6216875;23;20448;-76
2023/05/12 19:29:24;;;;;;;1.88;1.70;;;;;;;;;;6216856;23;20029;-77
2023/05/12 19:31:51;;;;;;;2.88;1.70;;;;;;;;;;6216823;23;20335;-77
2023/05/12 19:34:17;;;;;;;2.53;1.60;;;;;;;;;;6216755;23;20000;-78
2023/05/12 19:36:43;;;;;;;4.35;1.90;;;;;;;;;;6217250;23;20001;-77
2023/05/12 19:39:08;;;;;;;1.80;1.70;;;;;;;;;;6216738;23;20001;-77
2023/05/12 19:41:34;;;;;;;1.90;1.80;;;;;;;;;;6216669;23;20047;-77
2023/05/12 19:43:59;;;;;;;1.88;1.65;;;;;;;;;;6217062;23;20097;-78
2023/05/12 19:46:25;;;;;;;1.70;1.60;;;;;;;;;;6216548;23;20022;-77
2023/05/12 19:48:51;;;;;;;1.67;1.58;;;;;;;;;;6216573;23;20416;-78
2023/05/12 19:51:17;;;;;;;1.60;1.50;;;;;;;;;;6216518;23;20008;-78
2023/05/12 19:53:42;;;;;;;3.00;1.70;;;;;;;;;;6216601;23;20004;-79
2023/05/12 19:56:08;;;;;;;1.60;1.50;;;;;;;;;;6216586;23;20036;-79
2023/05/12 19:58:33;;;;;;;1.50;1.40;;;;;;;;;;6216438;23;20008;-79
2023/05/12 20:00:59;;;;;;;1.60;1.48;;;;;;;;;;6216658;23;20059;-78
2023/05/12 20:03:26;;;;;;;2.35;1.40;;;;;;;;;;6216522;23;20027;-79
2023/05/12 20:05:51;;;;;;;1.67;1.50;;;;;;;;;;6216247;23;20014;-78
2023/05/12 20:08:17;;;;;;;2.65;1.50;;;;;;;;;;6216391;23;20377;-79
2023/05/12 20:10:42;;;;;;;6.18;1.60;;;;;;;;;;6217524;23;20020;-79
2023/05/12 20:13:08;;;;;;;3.92;1.40;;;;;;;;;;6216006;23;20001;-78
2023/05/12 20:15:33;;;;;;;3.55;1.17;;;;;;;;;;6189946;23;20036;-78
2023/05/12 20:17:59;;;;;;;2.13;1.30;;;;;;;;;;6216807;23;20054;-78
2023/05/12 20:20:24;;;;;;;2.85;1.30;;;;;;;;;;6216299;23;20000;-78
2023/05/12 20:22:51;;;;;;;2.55;1.50;;;;;;;;;;6216593;23;20091;-79
2023/05/12 20:25:16;;;;;;;1.40;1.23;;;;;;;;;;6216172;23;20036;-78
2023/05/12 20:27:42;;;;;;;5.28;2.75;;;;;;;;;;6216165;23;20438;-78
2023/05/12 20:30:08;;;;;;;5.13;3.30;;;;;;;;;;6216522;23;20004;-78
2023/05/12 20:32:34;;;;;;;3.33;1.98;;;;;;;;;;6216255;23;19996;-79
2023/05/12 20:35:00;;;;;;;1.50;1.40;;;;;;;;;;6216105;23;20392;-78
2023/05/12 20:37:26;;;;;;;1.20;1.10;;;;;;;;;;6216115;23;20409;-79
2023/05/12 20:39:52;;;;;;;1.83;1.40;;;;;;;;;;6216348;23;20046;-80
2023/05/12 20:42:18;;;;;;;2.13;1.48;;;;;;;;;;6216239;23;20051;-79
2023/05/12 20:44:44;;;;;;;1.60;1.50;;;;;;;;;;6216317;23;20001;-80
2023/05/12 20:47:09;;;;;;;3.60;1.20;;;;;;;;;;6216095;23;20012;-78
2023/05/12 20:49:35;;;;;;;1.48;1.30;;;;;;;;;;6216140;23;20039;-78
2023/05/12 20:52:01;;;;;;;1.30;1.20;;;;;;;;;;6216163;23;20008;-80
2023/05/12 20:54:26;;;;;;;5.65;1.45;;;;;;;;;;6216084;23;20004;-78
2023/05/12 20:56:52;;;;;;;1.98;1.45;;;;;;;;;;6216441;23;20032;-78
2023/05/12 20:59:18;;;;;;;1.00;1.00;;;;;;;;;;6216472;23;20321;-79
2023/05/12 21:01:43;;;;;;;2.72;1.27;;;;;;;;;;6216315;23;20047;-78
2023/05/12 21:04:09;;;;;;;1.80;1.20;;;;;;;;;;6216073;23;20404;-79
2023/05/12 21:06:35;;;;;;;1.20;1.10;;;;;;;;;;6216190;23;20019;-79
2023/05/12 21:09:01;;;;;;;1.75;1.10;;;;;;;;;;6216008;23;20391;-78
2023/05/12 21:11:26;;;;;;;1.02;1.02;;;;;;;;;;6216041;23;20043;-79
2023/05/12 21:13:52;;;;;;;1.48;1.33;;;;;;;;;;6216296;23;20013;-78
2023/05/12 21:16:17;;;;;;;1.35;1.20;;;;;;;;;;6189253;23;20008;-78
2023/05/12 21:18:43;;;;;;;1.67;1.20;;;;;;;;;;6215975;23;20488;-79
2023/05/12 21:21:09;;;;;;;1.27;1.20;;;;;;;;;;6215958;23;20009;-79
2023/05/12 21:23:36;;;;;;;1.83;1.10;;;;;;;;;;6216832;23;20001;-81
2023/05/12 21:26:01;;;;;;;1.65;1.10;;;;;;;;;;6218105;23;20010;-80
2023/05/12 21:28:27;;;;;;;1.88;1.20;;;;;;;;;;6217781;23;20063;-78
2023/05/12 21:30:52;;;;;;;1.20;1.10;;;;;;;;;;6217998;23;20324;-77
2023/05/12 21:33:17;;;;;;;1.42;1.30;;;;;;;;;;6217894;23;20005;-78
2023/05/12 21:35:43;;;;;;;1.40;1.30;;;;;;;;;;6217839;23;20083;-78
2023/05/12 21:38:08;;;;;;;1.30;1.20;;;;;;;;;;6217843;23;20371;-79
2023/05/12 21:40:37;;;;;;;1.30;1.20;;;;;;;;;;6218210;23;20004;-79
2023/05/12 21:43:03;;;;;;;1.30;1.20;;;;;;;;;;6217961;23;20008;-78
2023/05/12 21:45:28;;;;;;;1.23;1.23;;;;;;;;;;6217635;23;20084;-79
2023/05/12 21:47:54;;;;;;;1.20;1.20;;;;;;;;;;6191044;23;20008;-78
2023/05/12 21:50:20;;;;;;;1.00;1.00;;;;;;;;;;6217707;23;20015;-78
2023/05/12 21:52:47;;;;;;;1.08;1.08;;;;;;;;;;6217645;23;20067;-78
2023/05/12 21:55:13;;;;;;;1.08;1.00;;;;;;;;;;6217955;23;20000;-82
2023/05/12 21:57:40;;;;;;;1.20;1.20;;;;;;;;;;6217675;23;20071;-78
2023/05/12 22:00:08;;;;;;;1.20;1.10;;;;;;;;;;6217796;23;20447;-78
2023/05/12 22:02:34;;;;;;;1.10;1.10;;;;;;;;;;6217586;23;20012;-78
2023/05/12 22:04:59;;;;;;;1.40;1.30;;;;;;;;;;6217405;23;20005;-78
2023/05/12 22:07:25;;;;;;;1.60;1.15;;;;;;;;;;6217694;23;20062;-78
2023/05/12 22:09:51;;;;;;;1.25;1.20;;;;;;;;;;6218144;23;20012;-78
2023/05/12 22:12:17;;;;;;;1.27;1.20;;;;;;;;;;6217257;23;20031;-79
2023/05/12 22:14:44;;;;;;;1.20;1.10;;;;;;;;;;6217912;23;20000;-79
2023/05/12 22:17:09;;;;;;;1.20;1.10;;;;;;;;;;6217671;23;20005;-78
2023/05/12 22:19:35;;;;;;;1.10;1.00;;;;;;;;;;6217429;23;20005;-78
2023/05/12 22:22:00;;;;;;;1.85;1.60;;;;;;;;;;6217512;23;20384;-78
2023/05/12 22:24:26;;;;;;;1.70;1.27;;;;;;;;;;6217631;23;20004;-77
2023/05/12 22:26:51;;;;;;;1.83;1.52;;;;;;;;;;6217515;23;20395;-78
2023/05/12 22:29:17;;;;;;;1.52;1.42;;;;;;;;;;6217314;23;20005;-80
2023/05/12 22:31:43;;;;;;;1.83;1.60;;;;;;;;;;6217585;23;20007;-79
2023/05/12 22:34:08;;;;;;;4.63;1.80;;;;;;;;;;6217283;23;20009;-78
